Time;durP1;ratioP1;P1;durP2;ratioP2;P2;SDS_P1;SDS_P2;PMS_P1;PMS_P2;Temp;Humidity;BMP_temperature;BMP_pressure;BME280_temperature;BME280_humidity;BME280_pressure;Samples;Min_cycle;Max_cycle;Signal;HPM_P1;HPM_P2
2022/05/04 00:00:13;;;;;;;74.03;29.42;;;;;;;7.27;68.28;95054.69;4977169;28;20034;-76
2022/05/04 00:02:38;;;;;;;102.35;42.08;;;;;;;7.25;68.50;95056.69;4992028;28;20037;-76
2022/05/04 00:05:04;;;;;;;126.72;51.65;;;;;;;7.23;68.03;95059.47;5008316;28;20064;-76
2022/05/04 00:07:29;;;;;;;117.38;51.83;;;;;;;7.20;67.99;95055.50;4992177;28;20121;-76
2022/05/04 00:09:57;;;;;;;64.53;31.38;;;;;;;7.27;68.25;95065.03;4991475;28;20038;-76
2022/05/04 00:12:23;;;;;;;96.97;42.70;;;;;;;7.28;68.64;95061.44;5008462;28;20814;-76
2022/05/04 00:14:48;;;;;;;213.48;88.63;;;;;;;7.26;67.45;95060.84;4977205;28;20034;-76
2022/05/04 00:17:14;;;;;;;204.48;85.38;;;;;;;7.26;67.28;95060.84;5010562;28;20022;-76
2022/05/04 00:19:39;;;;;;;152.93;58.05;;;;;;;7.20;67.00;95060.69;4975440;28;20135;-76
2022/05/04 00:22:04;;;;;;;166.57;67.00;;;;;;;7.14;67.24;95061.47;5009206;28;20493;-76
2022/05/04 00:24:30;;;;;;;158.55;65.30;;;;;;;7.14;67.46;95060.69;4992042;28;20062;-76
2022/05/04 00:26:55;;;;;;;154.25;59.00;;;;;;;7.15;66.78;95057.91;5035854;23;20620;-77
2022/05/04 00:29:21;;;;;;;132.85;53.78;;;;;;;7.11;66.73;95064.47;5008087;28;20057;-77
2022/05/04 00:31:46;;;;;;;96.93;42.83;;;;;;;7.11;66.58;95061.09;5009285;28;20038;-77
2022/05/04 00:34:11;;;;;;;224.40;91.15;;;;;;;7.08;66.89;95071.84;5008914;28;20497;-77
2022/05/04 00:36:37;;;;;;;240.57;93.47;;;;;;;7.02;66.49;95072.69;4990797;28;20034;-76
2022/05/04 00:39:03;;;;;;;184.63;70.32;;;;;;;6.96;66.70;95069.09;5007721;28;20607;-76
2022/05/04 00:41:28;;;;;;;159.02;61.55;;;;;;;6.94;67.17;95071.09;4967231;28;20088;-76
2022/05/04 00:43:54;;;;;;;186.73;74.97;;;;;;;6.90;67.28;95069.91;4991573;28;20034;-76
2022/05/04 00:46:19;;;;;;;198.23;74.70;;;;;;;6.86;67.54;95069.53;4998884;28;20030;-75
2022/05/04 00:48:45;;;;;;;220.77;84.63;;;;;;;6.79;67.39;95071.31;4983529;28;20038;-75
2022/05/04 00:51:10;;;;;;;247.43;95.70;;;;;;;6.75;67.38;95083.06;4991579;28;20172;-76
2022/05/04 00:53:37;;;;;;;210.15;85.88;;;;;;;6.78;67.87;95085.25;5007175;28;20041;-76
2022/05/04 00:56:02;;;;;;;124.72;47.13;;;;;;;6.82;67.81;95080.44;4959277;28;20045;-76
2022/05/04 01:01:12;;;;;;;113.40;50.90;;;;;;;6.83;67.87;95092.38;4993638;28;20127;-75
2022/05/04 01:03:38;;;;;;;182.27;74.85;;;;;;;6.75;68.02;95087.44;4991069;28;20030;-75
2022/05/04 01:06:03;;;;;;;172.90;69.35;;;;;;;6.78;68.18;95087.03;4991373;28;20038;-75
2022/05/04 01:08:29;;;;;;;170.68;71.05;;;;;;;6.81;68.41;95087.41;4975097;28;20038;-76
2022/05/04 01:10:54;;;;;;;144.95;61.38;;;;;;;6.81;68.23;95091.78;5007544;28;20065;-76
2022/05/04 01:13:20;;;;;;;91.38;39.28;;;;;;;6.80;67.96;95090.19;4975373;28;20398;-76
2022/05/04 01:15:47;;;;;;;70.00;30.58;;;;;;;6.82;67.52;95088.22;4991080;28;20967;-76
2022/05/04 01:18:12;;;;;;;54.33;26.15;;;;;;;6.84;67.34;95084.44;4991212;28;20034;-75
2022/05/04 01:20:38;;;;;;;50.08;23.38;;;;;;;6.86;67.56;95086.84;4991766;28;20393;-75
2022/05/04 01:23:03;;;;;;;42.05;21.00;;;;;;;6.81;67.61;95096.97;4994903;28;20437;-76
2022/05/04 01:25:29;;;;;;;46.28;19.90;;;;;;;6.81;67.96;95091.78;5014294;28;20042;-75
2022/05/04 01:27:55;;;;;;;35.97;22.17;;;;;;;6.76;68.29;95083.84;5011460;28;20390;-75
2022/05/04 01:30:21;;;;;;;64.22;37.58;;;;;;;6.81;67.85;95081.44;4994330;28;20671;-76
2022/05/04 01:32:47;;;;;;;80.05;41.10;;;;;;;6.78;68.14;95084.44;4994094;28;20048;-76
2022/05/04 01:35:12;;;;;;;83.72;42.80;;;;;;;6.74;67.98;95080.69;4994419;28;20040;-76
2022/05/04 01:37:38;;;;;;;93.35;45.53;;;;;;;6.75;67.42;95087.44;5011912;28;20169;-75
2022/05/04 01:40:04;;;;;;;134.93;56.55;;;;;;;6.69;67.30;95078.72;4994487;28;20518;-76
2022/05/04 01:44:58;;;;;;;201.80;89.75;;;;;;;6.67;67.24;95091.03;5018475;23;20433;-76
2022/05/04 01:47:24;;;;;;;205.73;89.97;;;;;;;6.63;66.33;95085.44;5011394;28;20038;-76
2022/05/04 01:49:49;;;;;;;209.88;91.35;;;;;;;6.58;66.73;95090.44;4993961;28;20029;-76
2022/05/04 01:52:15;;;;;;;219.52;105.60;;;;;;;6.56;67.38;95084.69;5010214;28;20030;-76
2022/05/04 01:54:40;;;;;;;272.10;119.55;;;;;;;6.53;67.07;95082.50;4994127;28;20030;-76
2022/05/04 01:57:06;;;;;;;272.48;127.70;;;;;;;6.51;67.22;95079.31;5011501;28;20077;-76
2022/05/04 01:59:31;;;;;;;247.90;109.60;;;;;;;6.50;66.96;95076.91;4993898;28;20186;-77
2022/05/04 02:01:57;;;;;;;185.10;87.28;;;;;;;6.43;67.45;95078.72;4975065;28;20053;-77
2022/05/04 02:04:22;;;;;;;147.35;71.85;;;;;;;6.39;67.34;95075.75;5010435;28;20038;-76
2022/05/04 02:06:48;;;;;;;149.30;65.03;;;;;;;6.35;67.05;95077.13;4977373;28;20037;-76
2022/05/04 02:09:13;;;;;;;153.57;67.75;;;;;;;6.33;67.51;95073.94;5011078;28;20037;-76
2022/05/04 02:11:38;;;;;;;147.30;68.78;;;;;;;6.33;67.52;95071.34;4993808;28;20053;-76
2022/05/04 02:14:04;;;;;;;143.38;68.13;;;;;;;6.32;67.47;95077.50;4993699;28;20124;-75
2022/05/04 02:16:30;;;;;;;108.32;51.13;;;;;;;6.33;67.75;95066.19;4977295;28;20061;-76
2022/05/04 02:18:56;;;;;;;84.38;39.10;;;;;;;6.35;67.69;95071.97;4993308;28;20398;-76
2022/05/04 02:21:21;;;;;;;79.30;34.72;;;;;;;6.32;67.40;95073.13;4993239;28;20121;-76
2022/05/04 02:23:47;;;;;;;65.40;31.65;;;;;;;6.32;67.69;95072.34;4976976;28;20034;-76
2022/05/04 02:26:12;;;;;;;106.50;47.50;;;;;;;6.28;67.26;95076.31;4985919;28;20026;-76
2022/05/04 02:28:38;;;;;;;128.23;57.20;;;;;;;6.28;67.31;95076.31;4976993;28;20057;-76
2022/05/04 02:31:03;;;;;;;141.32;64.82;;;;;;;6.26;67.12;95075.72;4976523;28;20038;-76
2022/05/04 02:33:29;;;;;;;167.20;77.93;;;;;;;6.25;66.78;95076.72;4976909;28;20034;-76
2022/05/04 02:38:38;;;;;;;133.55;57.60;;;;;;;6.13;67.01;95076.50;5010722;28;20429;-75
2022/05/04 02:41:03;;;;;;;104.53;49.00;;;;;;;6.07;67.61;95069.56;4976478;28;20030;-76
2022/05/04 02:43:32;;;;;;;127.78;60.92;;;;;;;6.00;68.00;95079.06;5008915;28;20065;-76
2022/05/04 02:45:57;;;;;;;111.80;51.72;;;;;;;5.97;68.14;95072.53;5010446;28;20042;-76
2022/05/04 02:48:23;;;;;;;97.93;45.72;;;;;;;5.96;67.61;95083.84;4993315;28;20068;-76
2022/05/04 02:50:48;;;;;;;67.25;29.98;;;;;;;5.98;67.96;95089.59;5011332;28;20038;-76
2022/05/04 02:53:14;;;;;;;40.88;22.40;;;;;;;6.03;68.01;95089.03;4997385;28;20042;-76
2022/05/04 02:55:39;;;;;;;24.52;12.30;;;;;;;6.03;68.40;95089.03;4993922;28;20619;-75
2022/05/04 02:58:05;;;;;;;23.58;13.30;;;;;;;6.00;68.04;95090.19;4993208;28;20034;-76
2022/05/04 03:00:30;;;;;;;29.98;14.13;;;;;;;5.96;68.17;95090.78;5008891;28;20099;-75
2022/05/04 03:02:56;;;;;;;38.00;16.83;;;;;;;5.91;67.97;95101.69;5010407;28;20397;-76
2022/05/04 03:05:21;;;;;;;29.02;16.95;;;;;;;5.89;68.10;95108.81;5011038;28;20489;-76
2022/05/04 03:07:47;;;;;;;46.15;19.15;;;;;;;5.91;68.37;95112.03;4976588;28;20034;-75
2022/05/04 03:10:13;;;;;;;51.80;27.48;;;;;;;5.94;68.80;95118.59;5010633;28;20045;-76
2022/05/04 03:12:39;;;;;;;85.55;38.00;;;;;;;5.90;68.00;95115.59;5009852;28;20038;-76
2022/05/04 03:15:05;;;;;;;95.10;38.38;;;;;;;5.88;68.18;95125.28;5010407;28;20048;-75
2022/05/04 03:17:30;;;;;;;51.03;23.02;;;;;;;5.94;68.23;95128.91;4992663;28;20070;-76
2022/05/04 03:19:56;;;;;;;59.88;31.98;;;;;;;6.06;67.58;95129.13;4992366;28;20034;-76
2022/05/04 03:22:21;;;;;;;71.82;30.00;;;;;;;6.01;67.75;95125.34;4992735;28;20927;-76
2022/05/04 03:24:47;;;;;;;44.88;22.48;;;;;;;6.07;68.60;95118.63;5009707;28;20042;-76
2022/05/04 03:27:12;;;;;;;48.28;27.17;;;;;;;6.18;68.57;95122.38;4992808;28;20033;-76
2022/05/04 03:29:37;;;;;;;61.88;35.20;;;;;;;6.26;68.26;95125.59;5008101;28;20084;-76
2022/05/04 03:32:03;;;;;;;69.03;36.70;;;;;;;6.37;68.01;95120.84;4968502;28;20038;-75
2022/05/04 03:34:29;;;;;;;69.32;38.15;;;;;;;6.40;67.57;95130.78;5009461;28;20490;-75
2022/05/04 03:36:55;;;;;;;76.05;38.10;;;;;;;6.50;67.43;95133.75;5009937;28;20145;-76
2022/05/04 03:39:20;;;;;;;72.55;31.80;;;;;;;6.58;67.11;95134.34;5009679;28;20033;-76
2022/05/04 03:41:46;;;;;;;56.72;29.85;;;;;;;6.63;67.15;95131.97;5009764;28;20033;-76
2022/05/04 03:44:11;;;;;;;101.65;48.60;;;;;;;6.76;67.24;95135.53;4990732;28;20030;-76
2022/05/04 03:46:55;;;;;;;129.35;59.58;;;;;;;6.84;67.38;95140.53;4992061;28;20073;-76
2022/05/04 03:49:22;;;;;;;177.63;89.28;;;;;;;6.99;66.74;95135.91;5009571;28;20034;-76
2022/05/04 03:51:48;;;;;;;81.45;43.92;;;;;;;7.17;65.80;95128.34;4976231;28;20041;-75
2022/05/04 03:54:25;;;;;;;46.05;22.98;;;;;;;7.38;66.14;95129.06;4991755;28;20038;-76
2022/05/04 03:56:50;;;;;;;38.75;21.75;;;;;;;7.51;65.15;95129.03;4967234;28;20048;-76
2022/05/04 03:59:15;;;;;;;51.45;26.50;;;;;;;7.61;64.97;95134.56;5009304;28;20034;-76
2022/05/04 04:01:41;;;;;;;56.45;31.23;;;;;;;7.74;65.02;95129.31;5008838;28;20041;-76
2022/05/04 04:04:06;;;;;;;103.60;53.55;;;;;;;7.98;64.22;95134.81;5009483;28;20054;-76
2022/05/04 04:06:32;;;;;;;141.60;71.05;;;;;;;8.45;62.24;95140.50;5009366;28;20042;-75
2022/05/04 04:08:58;;;;;;;21.10;11.85;;;;;;;9.36;58.91;95140.72;4991936;28;20555;-76
2022/05/04 04:11:23;;;;;;;22.45;9.35;;;;;;;10.13;55.77;95128.81;4991802;28;20080;-75
2022/05/04 04:13:48;;;;;;;12.73;8.57;;;;;;;10.98;53.20;95140.78;4992499;28;20080;-76
2022/05/04 04:16:14;;;;;;;14.18;8.30;;;;;;;11.62;51.56;95142.41;4975930;28;20510;-76
2022/05/04 04:18:39;;;;;;;18.13;8.40;;;;;;;12.03;50.31;95151.06;4993157;28;20548;-76
2022/05/04 04:23:49;;;;;;;14.57;7.28;;;;;;;12.35;48.24;95138.34;4981330;28;20095;-77
2022/05/04 04:26:14;;;;;;;11.75;6.97;;;;;;;11.61;50.32;95145.25;5009687;28;20657;-77
2022/05/04 04:28:40;;;;;;;8.35;6.22;;;;;;;10.61;52.09;95153.16;4975742;28;20464;-77
2022/05/04 04:31:05;;;;;;;9.32;6.82;;;;;;;10.63;54.03;95159.72;5007088;28;20037;-77
2022/05/04 04:33:31;;;;;;;12.13;7.00;;;;;;;10.69;53.07;95158.81;5007729;28;20037;-77
2022/05/04 04:35:57;;;;;;;7.65;6.10;;;;;;;10.77;52.86;95160.31;4992763;28;20037;-78
2022/05/04 04:38:22;;;;;;;13.88;7.22;;;;;;;11.30;51.91;95165.44;5010032;28;20065;-77
2022/05/04 04:40:48;;;;;;;16.27;7.63;;;;;;;12.39;48.85;95162.94;5007771;28;20592;-77
2022/05/04 04:43:14;;;;;;;9.60;7.25;;;;;;;14.42;43.47;95170.22;4975662;28;20054;-76
2022/05/04 04:45:40;;;;;;;8.70;6.65;;;;;;;16.45;39.83;95163.66;4958494;28;20131;-75
2022/05/04 04:48:06;;;;;;;9.80;5.50;;;;;;;18.47;36.44;95163.59;4991254;28;20065;-75
2022/05/04 04:50:32;;;;;;;11.52;5.57;;;;;;;20.25;33.45;95148.81;4982905;28;20065;-77
2022/05/04 04:52:57;;;;;;;18.40;6.38;;;;;;;22.11;30.64;95145.28;4998735;28;20587;-76
2022/05/04 04:55:22;;;;;;;18.33;6.18;;;;;;;23.37;27.60;95148.03;5010341;28;20597;-76
2022/05/04 04:57:48;;;;;;;21.65;10.95;;;;;;;23.82;27.15;95148.75;5012191;28;20837;-76
2022/05/04 05:00:14;;;;;;;28.70;12.07;;;;;;;24.46;26.41;95146.44;5009697;28;20034;-76
2022/05/04 05:02:40;;;;;;;29.33;12.27;;;;;;;24.06;26.36;95142.25;4994452;28;20092;-76
2022/05/04 05:05:06;;;;;;;31.00;10.70;;;;;;;22.65;28.05;95140.97;5011651;28;20092;-76
2022/05/04 05:07:32;;;;;;;13.10;6.13;;;;;;;21.43;28.97;95145.22;4994189;28;20041;-76
2022/05/04 05:09:57;;;;;;;16.23;7.93;;;;;;;20.14;31.24;95151.88;4994088;28;20056;-75
2022/05/04 05:12:23;;;;;;;15.55;8.32;;;;;;;19.03;33.30;95160.59;5010661;28;20037;-76
2022/05/04 05:17:33;;;;;;;17.20;8.32;;;;;;;17.15;37.17;95160.59;4983847;28;20052;-77
2022/05/04 05:19:59;;;;;;;16.40;6.75;;;;;;;16.33;38.29;95162.31;4977411;28;20069;-75
2022/05/04 05:22:24;;;;;;;17.77;6.80;;;;;;;15.64;39.73;95170.44;4978160;28;20221;-75
2022/05/04 05:24:50;;;;;;;10.85;8.18;;;;;;;15.39;40.71;95166.59;4993766;28;20041;-76
2022/05/04 05:27:15;;;;;;;21.92;7.80;;;;;;;15.20;41.44;95160.19;4994169;28;20046;-76
2022/05/04 05:29:41;;;;;;;13.70;7.15;;;;;;;15.13;41.88;95159.59;4994936;28;20034;-77
2022/05/04 05:32:07;;;;;;;15.40;8.48;;;;;;;14.98;43.57;95158.47;5008772;28;20030;-75
2022/05/04 05:34:33;;;;;;;16.27;8.60;;;;;;;15.69;41.87;95157.34;5011811;28;20041;-75
2022/05/04 05:37:00;;;;;;;17.33;7.18;;;;;;;17.79;38.11;95168.66;4995172;28;20034;-78
2022/05/04 05:39:25;;;;;;;18.95;8.07;;;;;;;20.59;32.90;95155.78;4994878;28;20462;-76
2022/05/04 05:41:51;;;;;;;17.25;8.68;;;;;;;23.25;28.53;95153.88;5010007;28;20118;-77
2022/05/04 05:44:17;;;;;;;23.17;12.60;;;;;;;24.85;26.05;95158.78;4993607;28;20030;-77
2022/05/04 05:46:43;;;;;;;30.02;15.60;;;;;;;26.91;23.25;95149.56;4986143;28;20045;-77
2022/05/04 05:49:08;;;;;;;34.45;16.13;;;;;;;28.68;21.50;95143.91;4995771;28;20034;-77
2022/05/04 05:51:34;;;;;;;22.60;14.10;;;;;;;30.17;19.39;95141.72;4994092;28;20522;-76
2022/05/04 05:53:59;;;;;;;25.80;11.10;;;;;;;31.47;18.11;95141.34;4994415;28;20038;-77
2022/05/04 05:56:25;;;;;;;23.80;8.40;;;;;;;32.58;17.01;95138.50;4993938;28;20030;-77
2022/05/04 05:58:50;;;;;;;17.35;10.00;;;;;;;33.62;16.54;95137.81;5010082;28;20486;-77
2022/05/04 06:01:16;;;;;;;26.20;9.27;;;;;;;34.46;15.01;95134.25;5010050;28;20049;-77
2022/05/04 06:03:41;;;;;;;15.68;9.60;;;;;;;35.12;14.66;95136.91;4993656;28;20033;-77
2022/05/04 06:06:07;;;;;;;24.25;9.80;;;;;;;35.69;14.11;95137.81;4979391;28;20046;-79
2022/05/04 06:08:32;;;;;;;20.48;9.02;;;;;;;36.25;13.56;95139.00;4995408;28;20038;-77
2022/05/04 06:10:57;;;;;;;19.65;7.90;;;;;;;36.44;13.43;95142.47;4993573;28;20042;-77
2022/05/04 06:13:23;;;;;;;14.38;6.03;;;;;;;36.24;13.64;95142.88;5011564;28;20054;-77
2022/05/04 06:15:48;;;;;;;12.95;5.82;;;;;;;35.59;13.68;95154.81;5011060;28;20038;-77
2022/05/04 06:18:14;;;;;;;11.32;5.93;;;;;;;35.22;14.12;95152.38;5011189;28;20037;-75
2022/05/04 06:20:39;;;;;;;18.38;6.63;;;;;;;34.88;14.63;95141.84;4993188;28;20036;-75
2022/05/04 06:23:05;;;;;;;17.38;6.93;;;;;;;34.30;14.82;95144.53;5010864;28;20037;-75
2022/05/04 06:25:30;;;;;;;16.40;7.70;;;;;;;33.29;15.42;95154.78;5010821;28;20112;-75
2022/05/04 06:27:56;;;;;;;19.75;6.75;;;;;;;32.63;16.80;95143.56;4977205;28;20472;-75
2022/05/04 06:35:49;;;;;;;14.52;6.25;;;;;;;30.08;18.09;95138.41;5009297;28;20084;-75
2022/05/04 06:38:15;;;;;;;19.85;7.78;;;;;;;29.58;19.01;95139.09;4993152;28;20117;-74
2022/05/04 06:40:40;;;;;;;18.10;6.93;;;;;;;29.28;19.41;95134.09;5010113;28;20034;-75
2022/05/04 06:43:06;;;;;;;21.35;6.75;;;;;;;28.70;19.96;95139.00;4992251;28;20468;-75
2022/05/04 06:45:32;;;;;;;15.10;6.53;;;;;;;28.25;20.88;95141.06;5010373;28;20021;-75
2022/05/04 06:47:57;;;;;;;19.10;6.75;;;;;;;27.97;21.13;95141.72;5009574;28;20096;-76
2022/05/04 06:50:23;;;;;;;20.67;7.50;;;;;;;27.70;21.80;95142.38;5011345;28;20025;-77
2022/05/04 06:52:48;;;;;;;18.00;6.57;;;;;;;27.38;22.42;95136.72;4994155;28;20072;-77
2022/05/04 06:55:14;;;;;;;25.08;8.13;;;;;;;26.77;22.15;95139.16;5010035;28;20026;-77
2022/05/04 06:57:39;;;;;;;18.15;6.97;;;;;;;26.42;23.65;95148.50;4993151;28;20493;-76
2022/05/04 07:00:06;;;;;;;18.20;8.25;;;;;;;25.97;23.75;95143.72;4991027;28;20037;-79
2022/05/04 07:02:35;;;;;;;17.92;7.40;;;;;;;25.71;24.50;95141.94;4995544;28;20029;-80
2022/05/04 07:05:04;;;;;;;28.55;8.75;;;;;;;25.40;24.47;95144.06;4994766;28;20114;-76
2022/05/04 07:07:29;;;;;;;14.35;6.88;;;;;;;24.97;24.97;95147.53;5007417;28;20034;-77
2022/05/04 07:09:55;;;;;;;25.15;7.47;;;;;;;24.18;25.97;95147.75;5010374;28;20264;-82
2022/05/04 07:12:21;;;;;;;15.85;6.75;;;;;;;24.08;26.79;95140.06;5009274;28;20034;-76
2022/05/04 07:14:46;;;;;;;21.48;7.80;;;;;;;24.13;26.47;95142.59;4994151;28;20034;-77
2022/05/04 07:17:12;;;;;;;15.63;7.68;;;;;;;24.10;26.70;95135.25;5011568;28;20112;-78
2022/05/04 07:19:37;;;;;;;18.90;8.13;;;;;;;24.04;27.35;95134.56;5008326;28;20037;-78
2022/05/04 07:22:03;;;;;;;27.52;9.05;;;;;;;24.03;26.88;95132.25;4976349;28;20042;-77
2022/05/04 07:24:28;;;;;;;14.40;7.00;;;;;;;23.86;27.13;95139.06;4991675;28;20088;-77
2022/05/04 07:26:54;;;;;;;17.75;7.75;;;;;;;23.72;27.36;95133.06;5009924;28;20034;-77
2022/05/04 07:29:20;;;;;;;15.15;7.45;;;;;;;23.77;27.44;95135.59;4976078;28;20110;-77
2022/05/04 07:31:45;;;;;;;18.85;7.15;;;;;;;23.63;28.11;95132.28;5009027;28;20037;-79
2022/05/04 07:34:14;;;;;;;13.15;6.65;;;;;;;23.48;28.43;95135.28;4979435;28;20030;-79
2022/05/04 07:36:39;;;;;;;23.77;7.20;;;;;;;23.52;28.14;95130.94;4995996;28;20060;-78
2022/05/04 07:39:05;;;;;;;16.45;6.93;;;;;;;23.54;28.72;95131.41;4994603;28;20498;-78
2022/05/04 07:44:14;;;;;;;16.63;6.57;;;;;;;23.31;28.73;95128.81;4995991;28;20045;-78
2022/05/04 07:46:41;;;;;;;16.77;6.00;;;;;;;23.09;29.11;95123.50;4992918;28;20033;-78
2022/05/04 07:49:07;;;;;;;13.38;5.43;;;;;;;22.89;30.25;95116.84;5008883;28;20053;-78
2022/05/04 07:51:32;;;;;;;35.00;6.68;;;;;;;22.95;29.66;95122.81;4992470;28;20603;-78
2022/05/04 07:53:58;;;;;;;9.93;5.63;;;;;;;22.93;28.96;95119.66;4992941;28;20057;-78
2022/05/04 07:56:23;;;;;;;14.93;5.18;;;;;;;22.96;29.45;95121.72;4993234;28;20037;-77
2022/05/04 07:58:49;;;;;;;6.90;4.32;;;;;;;22.95;28.71;95120.16;5010041;28;20049;-78
2022/05/04 08:04:17;;;;;;;20.27;4.50;;;;;;;22.86;28.38;95117.44;5010441;28;20445;-78
2022/05/04 08:06:42;;;;;;;12.85;3.30;;;;;;;22.86;26.91;95116.66;4996193;28;20034;-78
2022/05/04 08:09:08;;;;;;;6.97;3.78;;;;;;;22.82;27.03;95113.84;4992430;28;20041;-78
2022/05/04 08:11:33;;;;;;;7.43;3.78;;;;;;;22.70;28.04;95111.69;4993108;28;20032;-79
2022/05/04 08:13:59;;;;;;;8.85;3.15;;;;;;;22.63;28.45;95119.28;5011137;28;20033;-78
2022/05/04 08:16:24;;;;;;;8.57;3.47;;;;;;;22.59;29.05;95110.34;5008910;28;20029;-78
2022/05/04 08:18:50;;;;;;;9.10;4.22;;;;;;;22.54;28.54;95115.75;4975972;28;20034;-78
2022/05/04 08:21:15;;;;;;;8.48;3.45;;;;;;;22.52;29.18;95109.97;4985084;28;20045;-77
2022/05/04 08:23:41;;;;;;;4.18;3.35;;;;;;;22.35;28.00;95112.47;4991482;28;20065;-77
2022/05/04 08:26:06;;;;;;;11.63;3.25;;;;;;;22.33;28.25;95104.84;5007945;28;20407;-78
2022/05/04 08:28:32;;;;;;;6.68;2.92;;;;;;;22.40;28.31;95109.72;4991620;28;20026;-78
2022/05/04 08:30:57;;;;;;;13.10;4.10;;;;;;;22.39;28.59;95102.84;4995976;28;20077;-77
2022/05/04 08:33:23;;;;;;;16.20;3.20;;;;;;;22.34;27.57;95106.41;4997240;28;20034;-78
2022/05/04 08:35:49;;;;;;;15.98;3.88;;;;;;;22.34;28.01;95109.06;4995640;28;20038;-78
2022/05/04 08:38:14;;;;;;;5.75;3.58;;;;;;;22.20;29.51;95107.50;4995550;28;20097;-78
2022/05/04 08:40:40;;;;;;;8.43;4.35;;;;;;;22.21;28.92;95112.50;4996952;28;20088;-78
2022/05/04 08:43:07;;;;;;;11.00;3.17;;;;;;;22.25;29.21;95104.75;4999693;28;20121;-78
2022/05/04 08:45:41;;;;;;;4.47;2.60;;;;;;;21.90;29.04;95107.03;5013035;28;20053;-79
2022/05/04 08:48:08;;;;;;;5.70;2.70;;;;;;;21.68;29.97;95109.59;4997882;28;20619;-80
2022/05/04 08:50:34;;;;;;;13.75;2.72;;;;;;;21.68;31.03;95109.59;4998303;28;20517;-80
2022/05/04 08:53:01;;;;;;;5.82;2.45;;;;;;;21.65;30.53;95105.69;4982329;28;20120;-79
2022/05/04 08:55:26;;;;;;;2.58;2.15;;;;;;;21.48;31.29;95103.63;5014870;28;20916;-80
2022/05/04 08:57:54;;;;;;;11.20;2.80;;;;;;;21.42;32.34;95107.41;5013232;28;20176;-80
2022/05/04 09:00:20;;;;;;;5.20;2.72;;;;;;;21.38;32.23;95101.13;5014537;28;20497;-79
2022/05/04 09:02:45;;;;;;;9.65;2.75;;;;;;;21.35;32.25;95109.66;4979578;28;20038;-79
2022/05/04 09:05:12;;;;;;;7.45;2.83;;;;;;;21.25;32.82;95112.47;4980264;28;20038;-81
2022/05/04 09:07:38;;;;;;;5.05;2.35;;;;;;;21.13;32.98;95098.91;5012742;28;20038;-80
2022/05/04 09:10:04;;;;;;;5.93;3.08;;;;;;;21.08;33.45;95099.78;4980066;28;20034;-79
2022/05/04 09:12:34;;;;;;;12.40;3.10;;;;;;;21.10;33.45;95102.13;5013574;28;20040;-79
2022/05/04 09:15:00;;;;;;;8.32;3.35;;;;;;;21.09;33.02;95097.91;5013089;28;20069;-79
2022/05/04 09:17:25;;;;;;;6.72;3.15;;;;;;;21.02;33.89;95097.53;4996636;28;20799;-79
2022/05/04 09:22:41;;;;;;;6.40;1.90;;;;;;;20.91;32.45;95100.31;4986122;28;20052;-79
2022/05/04 09:25:19;;;;;;;8.75;3.05;;;;;;;20.87;32.67;95101.19;5013844;28;20040;-79
2022/05/04 09:27:45;;;;;;;6.43;2.70;;;;;;;20.86;32.75;95086.41;5004461;28;20097;-79
2022/05/04 09:30:11;;;;;;;3.88;2.17;;;;;;;20.90;32.32;95101.41;5012768;28;20493;-79
2022/05/04 09:32:40;;;;;;;4.03;2.50;;;;;;;20.95;33.74;95080.16;4996101;28;20034;-80
2022/05/04 09:35:13;;;;;;;2.30;2.10;;;;;;;20.96;32.35;95089.66;5015155;28;20038;-80
2022/05/04 09:45:55;;;;;;;2.10;1.95;;;;;;;19.86;32.48;95079.66;5017168;28;20211;-81
2022/05/04 09:51:27;;;;;;;6.53;2.50;;;;;;;19.98;33.24;95074.72;4991064;28;20057;-80
2022/05/04 09:53:53;;;;;;;3.22;2.10;;;;;;;20.02;32.00;95070.47;4996104;28;20040;-80
2022/05/04 09:56:18;;;;;;;3.13;2.13;;;;;;;19.93;31.21;95066.88;5013689;28;20022;-80
2022/05/04 09:58:44;;;;;;;5.53;1.83;;;;;;;19.97;32.34;95073.16;5013444;28;20501;-81
2022/05/04 10:01:09;;;;;;;2.03;1.83;;;;;;;20.00;32.14;95062.78;4994958;28;20065;-80
2022/05/04 10:03:35;;;;;;;4.55;2.47;;;;;;;20.06;32.53;95066.97;4979877;28;20104;-80
2022/05/04 10:06:00;;;;;;;2.75;2.55;;;;;;;20.10;31.77;95064.53;4970367;28;20633;-80
2022/05/04 10:08:26;;;;;;;6.43;2.40;;;;;;;20.12;33.07;95065.03;5014614;28;20042;-79
2022/05/04 10:10:53;;;;;;;2.22;1.95;;;;;;;20.18;32.80;95050.69;4995944;28;20037;-80
2022/05/04 10:13:19;;;;;;;2.45;2.03;;;;;;;20.26;33.87;95043.97;4994333;28;20076;-80
2022/05/04 10:15:45;;;;;;;8.68;2.35;;;;;;;20.30;33.38;95051.03;4995508;28;20038;-80
2022/05/04 10:18:13;;;;;;;3.10;2.20;;;;;;;20.37;33.25;95043.53;4978128;28;20081;-80
2022/05/04 10:20:42;;;;;;;8.82;2.10;;;;;;;20.48;31.91;95040.75;4988392;28;20053;-80
2022/05/04 10:23:25;;;;;;;3.78;1.85;;;;;;;20.42;31.50;95031.34;5015162;23;20069;-79
2022/05/04 10:25:51;;;;;;;11.48;2.30;;;;;;;20.41;31.97;95040.31;4996403;28;20046;-80
2022/05/04 10:28:16;;;;;;;5.53;2.15;;;;;;;20.49;31.46;95042.31;4996031;28;20046;-79
2022/05/04 10:31:00;;;;;;;4.07;2.70;;;;;;;20.79;32.15;95031.25;4995964;28;20042;-79
2022/05/04 10:33:35;;;;;;;6.13;1.73;;;;;;;21.05;31.00;95034.25;4994763;28;20038;-79
2022/05/04 10:36:20;;;;;;;5.10;2.50;;;;;;;21.13;30.54;95024.84;5016879;23;20042;-79
2022/05/04 10:38:50;;;;;;;11.85;9.43;;;;;;;21.20;30.25;95030.56;5017437;28;20046;-79
2022/05/04 10:41:17;;;;;;;4.28;2.28;;;;;;;21.37;29.73;95033.44;4979180;28;20129;-79
2022/05/04 10:43:50;;;;;;;3.83;1.92;;;;;;;21.50;30.06;95019.44;4991918;28;20061;-80
2022/05/04 10:46:24;;;;;;;5.45;1.90;;;;;;;21.52;29.83;95021.78;4979605;28;20042;-80
2022/05/04 10:48:51;;;;;;;2.45;1.95;;;;;;;21.55;29.23;95021.19;4997007;28;20041;-79
2022/05/04 10:51:18;;;;;;;3.25;2.33;;;;;;;21.53;29.14;95018.84;4995458;28;20048;-80
2022/05/04 10:53:48;;;;;;;3.00;1.88;;;;;;;21.45;29.86;95014.22;4978746;28;20069;-79
2022/05/04 10:56:24;;;;;;;6.25;2.65;;;;;;;21.34;30.82;95010.22;5017381;28;20433;-79
2022/05/04 10:58:57;;;;;;;2.33;2.08;;;;;;;21.19;30.11;95002.53;5016999;23;20049;-79
2022/05/04 11:01:24;;;;;;;3.05;1.95;;;;;;;21.15;29.72;95012.13;5018453;23;20050;31
2022/05/04 11:03:58;;;;;;;3.58;2.20;;;;;;;21.14;29.08;95000.75;4991174;28;20533;-79
2022/05/04 11:06:28;;;;;;;4.10;2.50;;;;;;;21.18;29.64;95000.97;4992358;28;20061;-80
2022/05/04 11:08:59;;;;;;;3.55;2.30;;;;;;;21.07;29.66;94996.94;4975375;28;20421;-80
2022/05/04 11:11:25;;;;;;;5.28;3.58;;;;;;;21.06;30.92;95003.31;4975229;28;20041;-80
2022/05/04 11:13:51;;;;;;;11.43;2.63;;;;;;;21.04;29.97;95000.19;4960381;28;20026;-80
2022/05/04 11:16:23;;;;;;;8.07;2.38;;;;;;;20.56;29.86;94995.22;4996925;28;20061;-79
2022/05/04 11:18:49;;;;;;;3.70;2.05;;;;;;;20.44;30.96;94997.50;4994024;28;20380;-80
2022/05/04 11:21:15;;;;;;;14.45;2.17;;;;;;;20.43;30.80;94993.31;4993465;28;20128;-80
2022/05/04 11:23:46;;;;;;;4.45;1.60;;;;;;;20.41;30.73;94987.50;4993354;28;20050;-80
2022/05/04 11:26:25;;;;;;;7.43;2.17;;;;;;;20.51;31.22;95004.00;4975805;28;20042;-80
2022/05/04 11:28:51;;;;;;;9.90;2.15;;;;;;;20.69;31.44;94991.81;5006510;23;20035;-79
2022/05/04 11:31:17;;;;;;;4.28;2.10;;;;;;;20.71;30.66;94989.66;5000383;28;20270;-79
2022/05/04 11:33:43;;;;;;;3.38;2.30;;;;;;;20.76;30.82;94989.56;5002820;28;20521;-80
2022/05/04 11:36:09;;;;;;;3.28;2.30;;;;;;;20.91;30.63;94991.94;5003204;28;20125;-80
2022/05/04 11:38:34;;;;;;;3.25;2.38;;;;;;;20.98;29.68;94996.84;5002071;28;20060;-78
2022/05/04 11:41:00;;;;;;;10.35;2.10;;;;;;;20.96;30.20;94991.84;5000573;28;20049;-81
2022/05/04 11:43:34;;;;;;;2.40;2.08;;;;;;;21.09;30.19;94992.16;5005222;28;20034;-79
2022/05/04 11:46:06;;;;;;;2.65;2.08;;;;;;;21.25;30.15;94988.16;5000285;28;20038;-79
2022/05/04 11:48:32;;;;;;;5.40;2.10;;;;;;;21.45;30.32;94984.34;4999850;28;20510;-79
2022/05/04 11:51:23;;;;;;;4.88;2.00;;;;;;;21.64;29.32;94976.25;5000767;28;20037;-78
2022/05/04 11:53:48;;;;;;;4.03;2.75;;;;;;;21.80;29.97;94977.50;5003761;28;20039;-78
2022/05/04 11:56:14;;;;;;;5.57;2.10;;;;;;;22.05;29.12;94971.69;5001539;28;20030;-79
2022/05/04 11:58:40;;;;;;;6.43;1.88;;;;;;;22.12;28.55;94966.75;5019728;23;20054;-79
2022/05/04 12:01:06;;;;;;;6.32;2.13;;;;;;;22.13;28.01;94963.03;5150191;23;20031;-80